• Join FlightAware (Why Join?)
  • Login
  • US Flag 
04:48AM EDT


 

Airport Tracker/Info


-or-


 

Live Flight TrackerFlight Track Log ✈ DAL1861 ✈ 27-Apr-2012 ✈ KATL - KLIT

Flight Track Log - Related Links

Times and Time Zones

All times are in EDT time to prevent confusion due to time zone crossing. See the DAL1861 flight status page for this flight to view local times or setup timezone preferences in your user account.

Time Position Orientation Groundspeed Altitude Reporting Facility
EDT Latitude Longitude Course Direction KTS MPH feet Rate Location/Type
02:53PM 33.6500 -84.4667 287° West 165 190 2,700  Level Atlanta TRACON
02:54PM 33.6667 -84.5333 284° West 224 258 4,300 2,400 Climbing Atlanta TRACON
02:55PM 33.6833 -84.6167 274° West 266 306 7,500 2,460 Climbing Atlanta TRACON
02:57PM 33.6936 -84.8203 263° West 295 339 12,000 2,340 Climbing Atlanta Center
02:58PM 33.6825 -84.9350 262° West 336 387 14,800 2,400 Climbing Atlanta Center
02:59PM 33.6692 -85.0422 262° West 352 405 16,900 2,100 Climbing Atlanta Center
03:00PM 33.6556 -85.1644 267° West 370 426 19,100 2,100 Climbing Atlanta Center
03:01PM 33.6500 -85.2914 271° West 375 432 21,100 2,040 Climbing Atlanta Center
03:02PM 33.6528 -85.4239 271° West 387 445 23,200 1,800 Climbing Atlanta Center
03:03PM 33.6556 -85.5561 270° West 398 458 24,700 1,500 Climbing Atlanta Center
03:04PM 33.6558 -85.6958 270° West 409 471 26,200 1,500 Climbing Atlanta Center
03:05PM 33.6558 -85.8456 272° West 416 479 27,700 1,140 Climbing Atlanta Center
03:06PM 33.6600 -85.9731 271° West 422 486 28,500 900 Climbing Atlanta Center
03:07PM 33.6619 -86.1178 271° West 429 494 29,600 1,560 Climbing Atlanta Center
03:08PM 33.6636 -86.2650 270° West 440 506 31,700 1,800 Climbing Atlanta Center
03:09PM 33.6631 -86.4050 272° West 434 499 33,200 1,200 Climbing Atlanta Center
03:10PM 33.6664 -86.5472 270° West 429 494 34,200 1,020 Climbing Atlanta Center
03:11PM 33.6658 -86.6819 281° West 422 486 35,300 900 Climbing Atlanta Center
03:12PM 33.6894 -86.8325 285° West 417 480 36,000 300 Climbing Atlanta Center
03:13PM 33.7197 -86.9683 283° West 417 480 36,000  Level Atlanta Center
03:15PM 33.7678 -87.2161 286° West 427 491 36,000  Level Memphis Center
03:16PM 33.8003 -87.3500 284° West 427 491 36,000  Level Memphis Center
03:17PM 33.8261 -87.4717 283° West 427 491 36,000  Level Memphis Center
03:18PM 33.8519 -87.6058 284° West 415 478 36,000  Level Memphis Center
03:19PM 33.8800 -87.7375 282° West 410 472 36,000  Level Memphis Center
03:20PM 33.9036 -87.8769 285° West 422 486 36,000  Level Memphis Center
03:21PM 33.9333 -88.0114 282° West 422 486 36,000  Level Memphis Center
03:22PM 33.9569 -88.1483 283° West 422 486 36,000  Level Memphis Center
03:23PM 33.9842 -88.2881 283° West 428 493 36,000  Level Memphis Center
03:24PM 34.0094 -88.4203 283° West 428 493 36,000 -300 Level Memphis Center
03:25PM 34.0386 -88.5675 283° West 423 487 35,500 -660 Descending Memphis Center
03:26PM 34.0636 -88.6997 283° West 413 475 34,700 -900 Descending Memphis Center
03:27PM 34.0836 -88.8072 283° West 413 475 33,800 -900 Descending Memphis Center
03:28PM 34.1128 -88.9647 283° West 408 470 33,000 -420 Descending Memphis Center
03:29PM 34.1392 -89.1000 282° West 414 476 33,000  Level Memphis Center
03:30PM 34.1633 -89.2325 283° West 414 476 33,000  Level Memphis Center
03:31PM 34.1897 -89.3678 282° West 414 476 33,000  Level Memphis Center
03:32PM 34.2114 -89.4906 283° West 414 476 33,000  Level Memphis Center
03:33PM 34.2372 -89.6261 282° West 419 482 33,000  Level Memphis Center
03:34PM 34.2611 -89.7589 282° West 419 482 33,000 -120 Level Memphis Center
03:35PM 34.2844 -89.8972 283° West 419 482 32,800 -600 Descending Memphis Center
03:36PM 34.3122 -90.0478 283° West 419 482 31,900 -960 Descending Memphis Center
03:37PM 34.3375 -90.1836 281° West 419 482 30,900 -1,020 Descending Memphis Center
03:38PM 34.3606 -90.3219 282° West 419 482 29,900 -1,020 Descending Memphis Center
03:39PM 34.3856 -90.4603 283° West 414 476 28,900 -1,080 Descending Memphis Center
03:40PM 34.4125 -90.5989 284° West 414 476 27,800 -1,080 Descending Memphis Center
03:41PM 34.4392 -90.7322 285° West 414 476 26,800 -1,020 Descending Memphis Center
03:42PM 34.4681 -90.8661 282° West 409 471 25,800 -1,080 Descending Memphis Center
03:43PM 34.4883 -90.9794 284° West 409 471 24,700 -3,000 Descending Memphis Center
03:44PM 34.5169 -91.1183 286° West 409 471 19,900 -5,100 Descending Memphis Center
03:45PM 34.5472 -91.2497 282° West 414 476 14,600 -4,800 Descending Memphis Center
03:46PM 34.5692 -91.3711 281° West 385 443 10,300 -2,400 Descending Memphis Center
03:47PM 34.5872 -91.4822 278° West 354 407 9,900 -240 Descending Memphis Center
03:48PM 34.6006 -91.5933 278° West 332 382 9,900  Level Memphis Center
03:49PM 34.6122 -91.6919 280° West 307 353 9,900 -1,080 Level Memphis Center
03:50PM 34.6258 -91.7831 288° West 281 323 7,800 -2,100 Descending Memphis Center
03:51PM 34.6478 -91.8669 306° West 270 311 5,800 -2,100 Descending Memphis Center
03:52PM 34.6947 -91.9458 310° West 270 311 3,700 -1,800 Descending Memphis Center
03:53PM 34.7214 -91.9842 305° West 285 328 3,100 -1,500 Descending Memphis Center
03:53PM 34.7419 -92.0200 302° West 275 316 2,200 -1,140 Descending Memphis Center
03:54PM 34.7600 -92.0558 287° West 268 308 2,000 -120 Descending Memphis Center
03:55PM 34.7778 -92.1269 258° West 202 232 2,100 -360 Climbing Memphis Center
03:56PM 34.7689 -92.1800 224° Southwest 141 162 1,300 -720 Descending Memphis Center
03:57PM 34.7433 -92.2097 269° West 127 146 600 11,280 Descending Memphis Center
03:58PM 34.7422 -92.2856 269° West 144 166 28,000 20,280 Climbing Memphis Center